Terminal Aerodrome Forecast
Issued by NWS

Home | Current Version | Previous Version | Text Only | Print | Product List | Glossary On
Versions: 1 2 3 4 5 6 7 8 9 10 11 12 13 14 15 16 17 18 19 20 21 22
419
FTUS42 KILM 041504 CCB
TAFCRE
TAF COR
KCRE 041504Z 0415/0512 24006KT P6SM VCSH SCT025 SCT050
      TEMPO 0415/0417 BKN025 BKN050
     FM042100 23009KT P6SM VCSH SCT250
     FM050000 VRB03KT P6SM SKC=

USA.gov is the U.S. government's official web portal to all federal, state and local government web resources and services.